Terminal Aerodrome Forecast
Issued by NWS Cleveland, OH

Home | Current Version | Previous Version | Graphics & Text | Print | Product List | Glossary On
Versions: 1 2 3 4 5 6 7 8 9 10 11 12 13 14 15 16 17 18 19 20 21 22 23 24 25 26 27 28 29 30 31 32 33 34
000
FTUS41 KCLE 242300
TAFCLE
TAF
KCLE 242320Z 2500/2606 09009KT P6SM BKN250
     FM251000 16005KT 5SM BR BKN080
     FM251400 16007KT P6SM SCT250
     FM251900 36005KT P6SM BKN035
     FM252300 13005KT P6SM SCT035
     FM260500 13005KT P6SM BKN035=

USA.gov is the U.S. government's official web portal to all federal, state and local government web resources and services.